Palm Springs (PSP/KPSP)

Map

Destinations

Information

Location
Palm Springs, CA
Local Time
17:59 / 5:59 pm
GMT Time
00:59 / 12:59 am
Gates
9
No FAA reported delays
METAR KPSP 232353Z 32014G22KT 10SM CLR 41/13 A2972 RMK AO2 SLP059 T04060128 10428 20367 56024
TAF KPSP 232320Z 2400/2424 32012G22KT P6SM SKC FM240700 VRB06KT P6SM SKC